Terminal Aerodrome Forecast
Issued by NWS

Home | Current Version | Previous Version | Graphics & Text | Print | Product List | Glossary On
Versions: 1 2 3 4 5 6 7 8 9 10 11 12 13 14 15
726
FTUS43 KMPX 181122
TAFRNH
TAF
KRNH 181122Z 1812/1912 12012KT P6SM FEW250
     FM181600 14012G18KT P6SM FEW250
     FM190100 15009KT P6SM SCT250
     FM191100 26008KT P6SM SCT025 BKN050=

USA.gov is the U.S. government's official web portal to all federal, state and local government web resources and services.